createdAt,value
2018-09-03T00:00:03.805Z,25.66
2018-09-03T00:01:03.528Z,25.78
2018-09-03T00:02:03.562Z,25.67
2018-09-03T00:03:03.651Z,25.69
2018-09-03T00:04:03.681Z,25.64
2018-09-03T00:05:03.665Z,25.63
2018-09-03T00:06:03.999Z,25.66
2018-09-03T00:07:03.737Z,25.71
2018-09-03T00:08:03.813Z,25.67
2018-09-03T00:09:03.847Z,25.69
2018-09-03T00:10:03.882Z,25.72
2018-09-03T00:11:03.908Z,25.72
2018-09-03T00:12:03.893Z,25.67
2018-09-03T00:13:04.225Z,25.72
2018-09-03T00:14:03.960Z,25.69
2018-09-03T00:15:04.004Z,25.66
2018-09-03T00:16:04.079Z,25.64
2018-09-03T00:17:04.059Z,25.57
2018-09-03T00:18:04.149Z,25.76
2018-09-03T00:19:04.131Z,25.67
2018-09-03T00:20:04.461Z,25.71
2018-09-03T00:21:04.188Z,25.69
2018-09-03T00:22:04.279Z,25.71
2018-09-03T00:23:04.261Z,25.60
2018-09-03T00:24:04.297Z,25.67
2018-09-03T00:25:04.376Z,25.67
2018-09-03T00:26:04.354Z,25.71
2018-09-03T00:27:04.690Z,25.67
2018-09-03T00:28:04.426Z,25.67
2018-09-03T00:29:04.459Z,25.63
2018-09-03T00:30:04.489Z,25.64
2018-09-03T00:31:04.533Z,25.59
2018-09-03T00:32:04.606Z,25.64
2018-09-03T00:33:04.595Z,25.63
2018-09-03T00:34:04.926Z,25.56
2018-09-03T00:35:04.684Z,25.66
2018-09-03T00:36:04.734Z,25.63
2018-09-03T00:37:04.776Z,25.60
2018-09-03T00:38:04.808Z,25.63
2018-09-03T00:39:04.797Z,25.64
2018-09-03T00:40:04.831Z,25.67
2018-09-03T00:41:05.161Z,25.66
2018-09-03T00:42:04.893Z,25.63
2018-09-03T00:43:04.968Z,25.64
2018-09-03T00:44:05.010Z,25.61
2018-09-03T00:45:04.990Z,25.63
2018-09-03T00:46:05.039Z,25.64
2018-09-03T00:47:05.053Z,25.60
2018-09-03T00:48:05.388Z,25.61
2018-09-03T00:49:05.167Z,25.60
2018-09-03T00:50:05.204Z,25.60
2018-09-03T00:51:05.183Z,25.63
2018-09-03T00:52:05.220Z,25.63
2018-09-03T00:53:05.306Z,25.60
2018-09-03T00:54:05.336Z,25.60
2018-09-03T00:55:05.630Z,25.61
2018-09-03T00:56:05.350Z,25.60
2018-09-03T00:57:05.383Z,25.56
2018-09-03T00:58:05.465Z,25.53
2018-09-03T00:59:05.447Z,25.57
2018-09-03T01:00:05.538Z,25.54
2018-09-03T01:01:05.515Z,25.56
2018-09-03T01:02:05.849Z,25.56
2018-09-03T01:03:05.583Z,25.57
2018-09-03T01:04:05.620Z,25.56
2018-09-03T01:05:05.699Z,25.56
2018-09-03T01:06:05.734Z,25.51
2018-09-03T01:07:05.761Z,25.57
2018-09-03T01:08:05.755Z,25.53
2018-09-03T01:09:06.080Z,25.60
2018-09-03T01:10:05.864Z,25.60
2018-09-03T01:11:05.847Z,25.49
2018-09-03T01:12:05.924Z,25.59
2018-09-03T01:13:05.911Z,25.60
2018-09-03T01:14:05.965Z,25.61
2018-09-03T01:15:06.043Z,25.56
2018-09-03T01:16:06.317Z,25.53
2018-09-03T01:17:06.038Z,25.57
2018-09-03T01:18:06.082Z,25.61
2018-09-03T01:19:06.167Z,25.57
2018-09-03T01:20:06.194Z,25.54
2018-09-03T01:21:06.172Z,25.54
2018-09-03T01:23:06.296Z,25.54
2018-09-03T01:24:06.574Z,25.51
2018-09-03T01:25:06.352Z,25.51
2018-09-03T01:26:06.403Z,25.48
2018-09-03T01:27:06.374Z,25.51
2018-09-03T01:28:06.407Z,25.45
2018-09-03T01:30:06.529Z,25.51
2018-09-03T01:31:06.806Z,25.48
2018-09-03T01:32:06.586Z,25.48
2018-09-03T01:33:06.576Z,25.49
2018-09-03T01:35:06.690Z,25.54
2018-09-03T01:36:06.674Z,25.49
2018-09-03T01:37:06.756Z,25.46
2018-09-03T01:38:06.786Z,25.46
2018-09-03T01:39:06.773Z,25.45
2018-09-03T01:40:06.800Z,25.45
2018-09-03T01:41:06.833Z,25.54
2018-09-03T01:42:06.878Z,25.56
2018-09-03T01:43:06.957Z,25.49
2018-09-03T01:44:07.233Z,25.53
2018-09-03T01:45:06.969Z,25.54
2018-09-03T01:46:07.004Z,25.46
2018-09-03T01:47:07.083Z,25.49
2018-09-03T01:48:07.114Z,25.53
2018-09-03T01:49:07.099Z,25.51
2018-09-03T01:50:07.433Z,25.49
2018-09-03T01:51:07.168Z,25.57
2018-09-03T01:52:07.241Z,25.51
2018-09-03T01:53:07.233Z,25.54
2018-09-03T01:54:07.314Z,25.49
2018-09-03T01:55:07.347Z,25.49
2018-09-03T01:56:07.633Z,25.46
2018-09-03T01:57:07.355Z,25.45
2018-09-03T01:58:07.445Z,25.48
2018-09-03T01:59:07.486Z,25.42
2018-09-03T02:00:07.459Z,25.42
2018-09-03T02:01:07.544Z,25.49
2018-09-03T02:02:07.822Z,25.44
2018-09-03T02:03:07.559Z,25.42
2018-09-03T02:04:07.590Z,25.42
2018-09-03T02:05:07.625Z,25.42
2018-09-03T02:06:07.655Z,25.45
2018-09-03T02:07:07.740Z,25.48
2018-09-03T02:08:07.769Z,25.46
2018-09-03T02:09:08.058Z,25.44
2018-09-03T02:10:07.786Z,25.45
2018-09-03T02:11:07.866Z,25.39
2018-09-03T02:12:07.849Z,25.41
2018-09-03T02:13:07.941Z,25.30
2018-09-03T02:14:07.929Z,25.45
2018-09-03T02:15:07.953Z,25.36
2018-09-03T02:16:08.288Z,25.36
2018-09-03T02:17:08.067Z,25.39
2018-09-03T02:18:08.106Z,25.45
2018-09-03T02:19:08.085Z,25.46
2018-09-03T02:20:08.170Z,25.42
2018-09-03T02:21:08.148Z,25.38
2018-09-03T02:22:08.185Z,25.36
2018-09-03T02:23:08.521Z,25.39
2018-09-03T02:24:08.260Z,25.36
2018-09-03T02:25:08.330Z,25.42
2018-09-03T02:26:08.314Z,25.44
2018-09-03T02:27:08.350Z,25.39
2018-09-03T02:28:08.432Z,25.41
2018-09-03T02:29:08.468Z,25.35
2018-09-03T02:30:08.755Z,25.44
2018-09-03T02:31:08.490Z,25.36
2018-09-03T02:32:08.571Z,25.42
2018-09-03T02:33:08.539Z,25.46
2018-09-03T02:34:08.577Z,25.36
2018-09-03T02:35:08.658Z,25.44
2018-09-03T02:36:08.693Z,25.42
2018-09-03T02:37:08.975Z,25.44
2018-09-03T02:38:08.756Z,25.39
2018-09-03T02:39:08.746Z,25.39
2018-09-03T02:40:08.826Z,25.42
2018-09-03T02:41:08.807Z,25.31
2018-09-03T02:42:08.842Z,25.34
2018-09-03T02:43:08.918Z,25.36
2018-09-03T02:44:09.207Z,25.38
2018-09-03T02:45:09.004Z,25.35
2018-09-03T02:46:09.020Z,25.46
2018-09-03T02:47:09.003Z,25.36
2018-09-03T02:48:09.091Z,25.41
2018-09-03T02:49:09.075Z,25.36
2018-09-03T02:50:09.156Z,25.38
2018-09-03T02:51:09.436Z,25.36
2018-09-03T02:52:09.215Z,25.41
2018-09-03T02:53:09.204Z,25.29
2018-09-03T02:54:09.283Z,25.45
2018-09-03T02:55:09.311Z,25.38
2018-09-03T02:56:09.294Z,25.44
2018-09-03T02:57:09.383Z,25.39
2018-09-03T02:58:09.715Z,25.39
2018-09-03T02:59:09.468Z,25.44
2018-09-03T03:00:09.482Z,25.44
2018-09-03T03:01:09.461Z,25.34
2018-09-03T03:02:09.492Z,25.44
2018-09-03T03:03:09.590Z,25.36
2018-09-03T03:04:09.609Z,25.34
2018-09-03T03:05:09.894Z,25.38
2018-09-03T03:06:09.621Z,25.34
2018-09-03T03:07:09.660Z,25.36
2018-09-03T03:08:09.748Z,25.34
2018-09-03T03:09:09.731Z,25.35
2018-09-03T03:12:09.828Z,25.30
2018-09-03T03:13:10.204Z,25.36
2018-09-03T03:14:09.946Z,25.34
2018-09-03T03:15:09.941Z,25.36
2018-09-03T03:16:10.003Z,25.35
2018-09-03T03:17:09.985Z,25.35
2018-09-03T03:18:10.018Z,25.35
2018-09-03T03:19:10.101Z,25.35
2018-09-03T03:20:10.386Z,25.35
2018-09-03T03:21:10.117Z,25.35
2018-09-03T03:22:10.155Z,25.34
2018-09-03T03:23:10.236Z,25.30
2018-09-03T03:24:10.215Z,25.35
2018-09-03T03:25:10.301Z,25.36
2018-09-03T03:26:10.335Z,25.31
2018-09-03T03:27:10.620Z,25.34
2018-09-03T03:28:10.356Z,25.31
2018-09-03T03:29:10.381Z,25.23
2018-09-03T03:30:10.459Z,25.30
2018-09-03T03:31:10.448Z,25.24
2018-09-03T03:32:10.535Z,25.24
2018-09-03T03:33:10.514Z,25.31
2018-09-03T03:34:10.842Z,25.24
2018-09-03T03:35:10.628Z,25.24
2018-09-03T03:36:10.660Z,25.23
2018-09-03T03:37:10.641Z,25.23
2018-09-03T03:38:10.727Z,25.24
2018-09-03T03:39:10.706Z,25.20
2018-09-03T03:40:10.795Z,25.23
2018-09-03T03:41:11.079Z,25.26
2018-09-03T03:42:10.865Z,25.20
2018-09-03T03:43:10.840Z,25.24
2018-09-03T03:44:10.875Z,25.23
2018-09-03T03:45:10.951Z,25.26
2018-09-03T03:46:10.935Z,25.20
2018-09-03T03:47:11.021Z,25.26
2018-09-03T03:48:11.308Z,25.26
2018-09-03T03:49:11.036Z,25.23
2018-09-03T03:50:11.121Z,25.20
2018-09-03T03:51:11.111Z,25.22
2018-09-03T03:52:11.138Z,25.20
2018-09-03T03:53:11.213Z,25.26
2018-09-03T03:54:11.545Z,25.30
2018-09-03T03:55:11.287Z,25.24
2018-09-03T03:56:11.262Z,25.19
2018-09-03T03:57:11.298Z,25.26
2018-09-03T03:58:11.382Z,25.23
2018-09-03T03:59:11.378Z,25.26
2018-09-03T04:00:11.750Z,25.22
2018-09-03T04:01:11.424Z,25.19
2018-09-03T04:02:11.509Z,25.20
2018-09-03T04:03:11.495Z,25.26
2018-09-03T04:04:11.530Z,25.22
2018-09-03T04:05:11.611Z,25.26
2018-09-03T04:06:11.896Z,25.17
2018-09-03T04:07:11.692Z,25.20
2018-09-03T04:08:11.653Z,25.22
2018-09-03T04:09:11.743Z,25.20
2018-09-03T04:10:11.772Z,25.23
2018-09-03T04:11:11.753Z,25.12
2018-09-03T04:12:11.834Z,25.22
2018-09-03T04:13:12.126Z,25.16
2018-09-03T04:14:11.900Z,25.29
2018-09-03T04:15:11.943Z,25.24
2018-09-03T04:16:11.972Z,25.23
2018-09-03T04:17:11.953Z,25.19
2018-09-03T04:18:11.983Z,25.14
2018-09-03T04:19:12.052Z,25.14
2018-09-03T04:20:12.347Z,25.20
2018-09-03T04:21:12.138Z,25.26
2018-09-03T04:22:12.111Z,25.20
2018-09-03T04:23:12.330Z,25.19
2018-09-03T04:24:12.176Z,25.17
2018-09-03T04:25:12.213Z,25.24
2018-09-03T04:26:12.300Z,25.20
2018-09-03T04:27:12.627Z,25.19
2018-09-03T04:28:12.360Z,25.19
2018-09-03T04:29:12.347Z,25.20
2018-09-03T04:30:12.372Z,25.30
2018-09-03T04:31:12.411Z,25.14
2018-09-03T04:33:12.528Z,25.12
2018-09-03T04:34:12.819Z,25.09
2018-09-03T04:35:12.543Z,25.16
2018-09-03T04:36:12.626Z,25.12
2018-09-03T04:37:12.650Z,25.14
2018-09-03T04:38:12.686Z,25.12
2018-09-03T04:39:12.668Z,25.11
2018-09-03T04:40:12.704Z,25.08
2018-09-03T04:41:13.035Z,25.02
2018-09-03T04:42:12.770Z,25.01
2018-09-03T04:43:12.854Z,25.01
2018-09-03T04:44:12.885Z,25.05
2018-09-03T04:45:12.870Z,25.01
2018-09-03T04:46:12.901Z,24.98
2018-09-03T04:47:12.988Z,25.05
2018-09-03T04:48:13.408Z,24.99
2018-09-03T04:49:13.004Z,24.99
2018-09-03T04:50:13.037Z,25.09
2018-09-03T04:51:13.110Z,25.09
2018-09-03T04:52:13.096Z,25.12
2018-09-03T04:53:13.174Z,25.08
2018-09-03T04:54:13.158Z,25.05
2018-09-03T04:55:13.586Z,25.11
2018-09-03T04:56:13.225Z,25.14
2018-09-03T04:57:13.259Z,25.11
2018-09-03T04:58:13.340Z,25.14
2018-09-03T04:59:13.328Z,25.12
2018-09-03T05:00:13.406Z,25.14
2018-09-03T05:01:13.397Z,25.12
2018-09-03T05:02:13.730Z,25.17
2018-09-03T05:03:13.459Z,25.19
2018-09-03T05:04:13.543Z,25.14
2018-09-03T05:05:13.572Z,25.12
2018-09-03T05:06:13.608Z,25.11
2018-09-03T05:07:13.585Z,25.22
2018-09-03T05:08:13.615Z,25.14
2018-09-03T05:09:14.009Z,25.23
2018-09-03T05:10:13.683Z,25.11
2018-09-03T05:11:13.772Z,25.26
2018-09-03T05:12:13.796Z,25.23
2018-09-03T05:13:13.784Z,25.26
2018-09-03T05:14:13.827Z,25.22
2018-09-03T05:15:13.846Z,25.19
2018-09-03T05:16:14.182Z,25.19
2018-09-03T05:17:13.914Z,25.24
2018-09-03T05:18:13.997Z,25.27
2018-09-03T05:19:13.979Z,25.22
2018-09-03T05:20:14.010Z,25.26
2018-09-03T05:21:14.102Z,25.17
2018-09-03T05:22:14.125Z,25.29
2018-09-03T05:23:14.409Z,25.27
2018-09-03T05:24:14.138Z,25.27
2018-09-03T05:25:14.171Z,25.22
2018-09-03T05:26:14.205Z,25.26
2018-09-03T05:27:14.286Z,25.27
2018-09-03T05:28:14.325Z,25.27
2018-09-03T05:29:14.306Z,25.24
2018-09-03T05:30:14.698Z,25.20
2018-09-03T05:31:14.555Z,25.22
2018-09-03T05:32:14.405Z,25.20
2018-09-03T05:33:14.493Z,25.24
2018-09-03T05:34:14.521Z,25.22
2018-09-03T05:35:14.501Z,25.26
2018-09-03T05:36:14.846Z,25.31
2018-09-03T05:37:14.611Z,25.34
2018-09-03T05:38:14.673Z,25.30
2018-09-03T05:39:14.688Z,25.35
2018-09-03T05:40:14.712Z,25.31
2018-09-03T05:41:14.699Z,25.38
2018-09-03T05:42:14.725Z,25.34
2018-09-03T05:43:14.899Z,25.42
2018-09-03T05:44:14.842Z,25.42
2018-09-03T05:45:14.860Z,25.46
2018-09-03T05:46:14.859Z,25.36
2018-09-03T05:47:14.954Z,25.39
2018-09-03T05:48:15.227Z,25.34
2018-09-03T05:49:15.027Z,25.39
2018-09-03T05:50:15.118Z,25.45
2018-09-03T05:51:15.076Z,25.42
2018-09-03T05:52:15.050Z,25.44
2018-09-03T05:53:15.137Z,25.42
2018-09-03T05:54:15.117Z,25.48
2018-09-03T05:55:15.506Z,25.48
2018-09-03T05:56:15.180Z,25.49
2018-09-03T05:57:15.220Z,25.42
2018-09-03T05:58:15.251Z,25.42
2018-09-03T05:59:15.374Z,25.42
2018-09-03T06:00:15.369Z,25.46
2018-09-03T06:01:15.350Z,25.51
2018-09-03T06:02:15.441Z,25.49
2018-09-03T06:03:15.467Z,25.49
2018-09-03T06:04:15.447Z,25.45
2018-09-03T06:05:15.539Z,25.48
2018-09-03T06:06:15.561Z,25.46
2018-09-03T06:07:15.544Z,25.51
2018-09-03T06:08:15.629Z,25.48
2018-09-03T06:09:15.615Z,25.49
2018-09-03T06:10:15.696Z,25.49
2018-09-03T06:11:15.848Z,25.56
2018-09-03T06:12:15.753Z,25.53
2018-09-03T06:13:15.738Z,25.51
2018-09-03T06:14:16.119Z,25.49
2018-09-03T06:15:15.807Z,25.54
2018-09-03T06:16:15.898Z,25.56
2018-09-03T06:17:15.872Z,25.57
2018-09-03T06:18:15.949Z,25.51
2018-09-03T06:19:15.946Z,25.54
2018-09-03T06:20:16.014Z,25.51
2018-09-03T06:21:16.004Z,25.54
2018-09-03T06:22:16.041Z,25.60
2018-09-03T06:23:16.121Z,25.60
2018-09-03T06:24:16.149Z,25.63
2018-09-03T06:25:16.130Z,25.57
2018-09-03T06:26:16.160Z,25.60
2018-09-03T06:27:16.494Z,25.63
2018-09-03T06:28:16.232Z,25.64
2018-09-03T06:29:16.312Z,25.64
2018-09-03T06:30:16.354Z,25.64
2018-09-03T06:31:16.374Z,25.59
2018-09-03T06:32:16.419Z,25.61
2018-09-03T06:33:16.692Z,25.67
2018-09-03T06:34:16.425Z,25.67
2018-09-03T06:35:16.465Z,25.63
2018-09-03T06:36:16.554Z,25.67
2018-09-03T06:37:16.535Z,25.66
2018-09-03T06:38:16.621Z,25.72
2018-09-03T06:39:17.061Z,25.57
2018-09-03T06:40:16.689Z,25.64
2018-09-03T06:41:16.659Z,25.64
2018-09-03T06:42:16.687Z,25.69
2018-09-03T06:43:16.774Z,25.66
2018-09-03T06:44:16.803Z,25.66
2018-09-03T06:45:16.782Z,25.64
2018-09-03T06:46:17.120Z,25.66
2018-09-03T06:47:16.853Z,25.63
2018-09-03T06:48:16.886Z,25.74
2018-09-03T06:49:16.972Z,25.75
2018-09-03T06:50:17.005Z,25.74
2018-09-03T06:51:16.980Z,25.67
2018-09-03T06:52:17.117Z,25.74
2018-09-03T06:53:17.349Z,25.74
2018-09-03T06:54:17.132Z,25.74
2018-09-03T06:55:17.167Z,25.79
2018-09-03T06:56:17.191Z,25.76
2018-09-03T06:57:17.179Z,25.78
2018-09-03T06:58:17.270Z,25.78
2018-09-03T06:59:17.247Z,25.82
2018-09-03T07:00:17.575Z,25.83
2018-09-03T07:01:17.315Z,25.76
2018-09-03T07:02:17.395Z,25.85
2018-09-03T07:03:17.372Z,25.71
2018-09-03T07:04:17.463Z,25.79
2018-09-03T07:05:17.507Z,25.86
2018-09-03T07:06:17.529Z,25.82
2018-09-03T07:07:17.811Z,25.91
2018-09-03T07:08:17.596Z,25.75
2018-09-03T07:09:17.634Z,25.79
2018-09-03T07:10:17.613Z,25.82
2018-09-03T07:11:17.693Z,25.86
2018-09-03T07:12:17.726Z,25.90
2018-09-03T07:13:17.809Z,25.82
2018-09-03T07:14:18.056Z,25.91
2018-09-03T07:15:18.182Z,25.96
2018-09-03T07:16:18.187Z,25.89
2018-09-03T07:17:18.110Z,25.91
2018-09-03T07:18:18.102Z,25.91
2018-09-03T07:19:18.240Z,25.94
2018-09-03T07:20:17.982Z,25.96
2018-09-03T07:21:18.266Z,25.98
2018-09-03T07:22:18.059Z,25.91
2018-09-03T07:23:18.030Z,26.01
2018-09-03T07:24:18.124Z,25.91
2018-09-03T07:25:18.144Z,26.00
2018-09-03T07:26:18.183Z,26.03
2018-09-03T07:27:18.212Z,26.04
2018-09-03T07:28:18.496Z,26.01
2018-09-03T07:29:18.235Z,26.01
2018-09-03T07:30:18.319Z,26.00
2018-09-03T07:31:18.300Z,26.00
2018-09-03T07:32:18.377Z,26.01
2018-09-03T07:33:18.377Z,26.06
2018-09-03T07:34:18.454Z,26.03
2018-09-03T07:35:18.741Z,25.97
2018-09-03T07:36:18.561Z,26.03
2018-09-03T07:37:18.550Z,26.03
2018-09-03T07:38:18.695Z,26.01
2018-09-03T07:39:18.568Z,26.01
2018-09-03T07:40:18.648Z,26.03
2018-09-03T07:41:18.632Z,26.04
2018-09-03T07:42:18.972Z,26.01
2018-09-03T07:43:18.701Z,26.04
2018-09-03T07:44:18.779Z,26.04
2018-09-03T07:45:18.765Z,26.03
2018-09-03T07:46:18.804Z,26.04
2018-09-03T07:47:18.886Z,26.03
2018-09-03T07:48:18.906Z,26.06
2018-09-03T07:49:19.198Z,26.16
2018-09-03T07:50:18.952Z,26.04
2018-09-03T07:51:18.962Z,26.11
2018-09-03T07:52:18.997Z,26.08
2018-09-03T07:53:19.077Z,26.09
2018-09-03T07:54:19.055Z,26.12
2018-09-03T07:55:19.091Z,26.11
2018-09-03T07:56:19.582Z,26.06
2018-09-03T07:57:19.169Z,26.01
2018-09-03T07:58:19.242Z,26.11
2018-09-03T07:59:19.279Z,26.12
2018-09-03T08:00:19.309Z,26.08
2018-09-03T08:01:19.310Z,26.06
2018-09-03T08:02:19.319Z,26.09
2018-09-03T08:03:19.717Z,26.17
2018-09-03T08:04:19.444Z,26.13
2018-09-03T08:05:19.428Z,26.16
2018-09-03T08:06:19.510Z,26.16
2018-09-03T08:07:19.579Z,26.16
2018-09-03T08:08:19.569Z,26.13
2018-09-03T08:09:19.604Z,26.11
2018-09-03T08:10:19.640Z,26.17
2018-09-03T08:11:19.624Z,26.12
2018-09-03T08:12:19.658Z,26.16
2018-09-03T08:13:19.740Z,26.06
2018-09-03T08:14:19.769Z,26.12
2018-09-03T08:15:19.756Z,26.09
2018-09-03T08:16:20.086Z,26.12
2018-09-03T08:17:19.822Z,26.09
2018-09-03T08:18:19.858Z,26.12
2018-09-03T08:19:19.935Z,26.17
2018-09-03T08:20:19.924Z,26.09
2018-09-03T08:21:20.006Z,26.12
2018-09-03T08:22:20.041Z,26.12
2018-09-03T08:23:20.076Z,26.11
2018-09-03T08:24:20.051Z,26.11
2018-09-03T08:25:20.102Z,26.08
2018-09-03T08:26:20.174Z,26.08
2018-09-03T08:27:20.207Z,26.00
2018-09-03T08:28:20.240Z,26.08
2018-09-03T08:29:20.225Z,26.12
2018-09-03T08:30:20.317Z,26.06
2018-09-03T08:31:20.292Z,26.00
2018-09-03T08:32:20.377Z,26.08
2018-09-03T08:33:20.357Z,26.03
2018-09-03T08:34:20.686Z,26.11
2018-09-03T08:35:20.433Z,26.09
2018-09-03T08:36:20.504Z,26.00
2018-09-03T08:37:20.572Z,26.08
2018-09-03T08:38:20.672Z,26.12
2018-09-03T08:39:21.438Z,26.09
2018-09-03T08:40:20.640Z,26.09
2018-09-03T08:41:20.677Z,26.11
2018-09-03T08:42:20.706Z,26.09
2018-09-03T08:43:20.749Z,26.12
2018-09-03T08:44:20.734Z,26.08
2018-09-03T08:45:20.803Z,26.21
2018-09-03T08:46:20.786Z,26.20
2018-09-03T08:47:20.873Z,26.12
2018-09-03T08:48:20.903Z,26.21
2018-09-03T08:49:20.890Z,26.20
2018-09-03T08:50:20.979Z,26.19
2018-09-03T08:51:21.036Z,26.19
2018-09-03T08:52:21.045Z,26.20
2018-09-03T08:53:21.325Z,26.23
2018-09-03T08:54:21.115Z,26.28
2018-09-03T08:55:21.104Z,26.21
2018-09-03T08:56:21.189Z,26.29
2018-09-03T08:57:21.212Z,26.27
2018-09-03T08:58:21.239Z,26.24
2018-09-03T08:59:21.529Z,26.28
2018-09-03T09:00:21.314Z,26.21
2018-09-03T09:01:21.341Z,26.21
2018-09-03T09:02:21.389Z,26.16
2018-09-03T09:03:21.366Z,26.21
2018-09-03T09:04:21.393Z,26.24
2018-09-03T09:05:21.777Z,26.28
2018-09-03T09:06:21.516Z,26.24
2018-09-03T09:07:21.549Z,26.23
2018-09-03T09:08:21.582Z,26.32
2018-09-03T09:09:21.561Z,26.31
2018-09-03T09:10:21.651Z,26.24
2018-09-03T09:11:21.930Z,26.27
2018-09-03T09:12:21.707Z,26.27
2018-09-03T09:13:21.696Z,26.31
2018-09-03T09:14:21.893Z,26.21
2018-09-03T09:15:21.811Z,26.27
2018-09-03T09:16:21.855Z,26.35
2018-09-03T09:17:21.832Z,26.24
2018-09-03T09:18:22.170Z,26.20
2018-09-03T09:20:21.936Z,26.21
2018-09-03T09:21:22.018Z,26.34
2018-09-03T09:22:22.047Z,26.20
2018-09-03T09:23:22.088Z,26.31
2018-09-03T09:24:22.073Z,26.28
2018-09-03T09:25:22.396Z,26.27
2018-09-03T09:26:22.187Z,26.35
2018-09-03T09:27:22.174Z,26.20
2018-09-03T09:28:22.245Z,26.29
2018-09-03T09:29:22.244Z,26.34
2018-09-03T09:30:22.316Z,26.31
2018-09-03T09:31:22.307Z,26.23
2018-09-03T09:32:22.336Z,26.21
2018-09-03T09:33:22.421Z,26.24
2018-09-03T09:34:22.471Z,26.21
2018-09-03T09:35:22.432Z,26.24
2018-09-03T09:36:22.471Z,26.24
2018-09-03T09:37:22.549Z,26.24
2018-09-03T09:38:22.856Z,26.11
2018-09-03T09:39:22.617Z,26.19
2018-09-03T09:40:22.656Z,26.23
2018-09-03T09:41:22.708Z,26.16
2018-09-03T09:42:22.726Z,26.20
2018-09-03T09:44:22.883Z,26.17
2018-09-03T09:45:23.071Z,26.16
2018-09-03T09:46:22.865Z,26.12
2018-09-03T09:47:22.842Z,26.21
2018-09-03T09:48:22.900Z,26.13
2018-09-03T09:49:22.951Z,26.11
2018-09-03T09:50:22.940Z,26.17
2018-09-03T09:51:23.019Z,26.19
2018-09-03T09:52:23.012Z,26.20
2018-09-03T09:53:23.035Z,26.17
2018-09-03T09:54:23.178Z,26.23
2018-09-03T09:55:23.104Z,26.20
2018-09-03T09:56:23.393Z,26.21
2018-09-03T09:57:23.176Z,26.12
2018-09-03T09:58:23.515Z,26.27
2018-09-03T09:59:23.251Z,26.24
2018-09-03T10:00:23.276Z,26.28
2018-09-03T10:01:23.365Z,26.29
2018-09-03T10:02:23.448Z,26.23
2018-09-03T10:03:23.428Z,26.23
2018-09-03T10:04:23.417Z,26.20
2018-09-03T10:05:23.446Z,26.31
2018-09-03T10:06:23.530Z,26.29
2018-09-03T10:07:23.518Z,26.20
2018-09-03T10:08:23.614Z,26.29
2018-09-03T10:09:23.648Z,26.27
2018-09-03T10:10:23.670Z,26.27
2018-09-03T10:11:23.649Z,26.35
2018-09-03T10:12:23.730Z,26.31
2018-09-03T10:13:23.736Z,26.34
2018-09-03T10:14:23.743Z,26.35
2018-09-03T10:15:23.839Z,26.36
2018-09-03T10:16:24.119Z,26.38
2018-09-03T10:17:23.899Z,26.41
2018-09-03T10:18:23.935Z,26.41
2018-09-03T10:19:23.962Z,26.42
2018-09-03T10:20:24.037Z,26.41
2018-09-03T10:21:24.031Z,26.47
2018-09-03T10:22:24.016Z,26.47
2018-09-03T10:23:24.354Z,26.39
2018-09-03T10:24:24.093Z,26.46
2018-09-03T10:25:24.173Z,26.50
2018-09-03T10:26:24.215Z,26.47
2018-09-03T10:27:24.190Z,26.47
2018-09-03T10:28:24.271Z,26.47
2018-09-03T10:29:24.257Z,26.42
2018-09-03T10:30:24.296Z,26.49
2018-09-03T10:31:24.380Z,26.47
2018-09-03T10:32:24.364Z,26.46
2018-09-03T10:33:24.436Z,26.53
2018-09-03T10:34:24.476Z,26.49
2018-09-03T10:35:24.505Z,26.56
2018-09-03T10:36:24.541Z,26.50
2018-09-03T10:37:24.584Z,26.50
2018-09-03T10:38:24.614Z,26.54
2018-09-03T10:40:24.636Z,26.53
2018-09-03T10:41:24.712Z,26.51
2018-09-03T10:42:24.696Z,26.54
2018-09-03T10:43:24.789Z,26.60
2018-09-03T10:44:24.817Z,26.53
2018-09-03T10:45:24.803Z,26.60
2018-09-03T10:46:24.888Z,26.47
2018-09-03T10:47:25.044Z,26.56
2018-09-03T10:48:25.246Z,26.60
2018-09-03T10:49:24.977Z,26.54
2018-09-03T10:50:25.024Z,26.57
2018-09-03T10:51:25.005Z,26.60
2018-09-03T10:52:25.054Z,26.60
2018-09-03T10:53:25.128Z,26.56
2018-09-03T10:54:25.474Z,26.59
2018-09-03T10:55:25.188Z,26.64
2018-09-03T10:56:25.228Z,26.60
2018-09-03T10:57:25.261Z,26.59
2018-09-03T10:58:25.294Z,26.57
2018-09-03T10:59:25.272Z,26.66
2018-09-03T11:00:25.358Z,26.59
2018-09-03T11:01:25.408Z,26.69
2018-09-03T11:02:25.373Z,26.69
2018-09-03T11:03:25.463Z,26.71
2018-09-03T11:04:25.496Z,26.71
2018-09-03T11:05:25.627Z,26.65
2018-09-03T11:06:25.584Z,26.73
2018-09-03T11:07:25.902Z,26.72
2018-09-03T11:08:25.580Z,26.78
2018-09-03T11:09:25.622Z,26.71
2018-09-03T11:10:25.683Z,26.72
2018-09-03T11:11:25.733Z,26.71
2018-09-03T11:12:25.829Z,26.69
2018-09-03T11:13:25.770Z,26.72
2018-09-03T11:14:26.094Z,26.73
2018-09-03T11:15:25.912Z,26.78
2018-09-03T11:16:25.855Z,26.78
2018-09-03T11:17:25.994Z,26.81
2018-09-03T11:18:25.976Z,26.81
2018-09-03T11:19:26.010Z,26.78
2018-09-03T11:20:25.987Z,26.81
2018-09-03T11:21:26.225Z,26.79
2018-09-03T11:22:26.278Z,26.86
2018-09-03T11:23:26.142Z,26.96
2018-09-03T11:24:26.183Z,26.88
2018-09-03T11:25:26.166Z,26.93
2018-09-03T11:26:26.198Z,26.87
2018-09-03T11:27:26.554Z,26.86
2018-09-03T11:28:26.319Z,26.87
2018-09-03T11:29:26.315Z,26.87
2018-09-03T11:30:26.421Z,26.84
2018-09-03T11:31:26.374Z,26.88
2018-09-03T11:32:26.406Z,26.88
2018-09-03T11:33:26.493Z,26.84
2018-09-03T11:34:26.824Z,26.88
2018-09-03T11:36:26.594Z,26.96
2018-09-03T11:37:26.575Z,26.88
2018-09-03T11:38:26.619Z,26.91
2018-09-03T11:39:26.701Z,26.93
2018-09-03T11:40:26.986Z,26.93
2018-09-03T11:41:26.718Z,26.93
2018-09-03T11:42:26.744Z,26.90
2018-09-03T11:43:26.881Z,26.90
2018-09-03T11:44:26.864Z,26.91
2018-09-03T11:45:26.904Z,26.90
2018-09-03T11:46:27.241Z,26.87
2018-09-03T11:47:26.920Z,26.91
2018-09-03T11:48:26.963Z,26.97
2018-09-03T11:49:26.993Z,26.84
2018-09-03T11:50:27.077Z,26.93
2018-09-03T11:51:27.066Z,26.87
2018-09-03T11:52:27.401Z,26.87
2018-09-03T11:53:27.175Z,26.91
2018-09-03T11:54:27.192Z,26.91
2018-09-03T11:55:27.239Z,26.86
2018-09-03T11:56:27.285Z,26.90
2018-09-03T11:57:27.318Z,26.90
2018-09-03T11:58:27.345Z,26.91
2018-09-03T11:59:27.637Z,26.93
2018-09-03T12:00:27.495Z,26.84
2018-09-03T12:01:27.448Z,26.87
2018-09-03T12:02:27.487Z,26.87
2018-09-03T12:03:27.526Z,26.93
2018-09-03T12:04:27.555Z,26.86
2018-09-03T12:05:27.606Z,26.88
2018-09-03T12:06:27.929Z,26.91
2018-09-03T12:07:27.620Z,26.91
2018-09-03T12:08:27.700Z,26.90
2018-09-03T12:09:27.722Z,26.86
2018-09-03T12:10:27.760Z,26.90
2018-09-03T12:11:27.740Z,26.90
2018-09-03T12:12:27.823Z,26.96
2018-09-03T12:13:28.173Z,26.90
2018-09-03T12:14:27.857Z,26.87
2018-09-03T12:15:27.930Z,26.94
2018-09-03T12:16:27.991Z,26.91
2018-09-03T12:17:28.022Z,26.91
2018-09-03T12:18:28.086Z,26.90
2018-09-03T12:19:28.070Z,26.90
2018-09-03T12:20:28.063Z,26.88
2018-09-03T12:21:28.089Z,26.87
2018-09-03T12:22:28.134Z,26.88
2018-09-03T12:23:28.203Z,26.88
2018-09-03T12:24:28.250Z,26.91
2018-09-03T12:25:28.243Z,26.88
2018-09-03T12:26:28.611Z,26.91
2018-09-03T12:27:28.358Z,26.90
2018-09-03T12:28:28.379Z,26.94
2018-09-03T12:29:28.393Z,26.88
2018-09-03T12:30:28.453Z,26.93
2018-09-03T12:31:28.555Z,26.91
2018-09-03T12:32:28.514Z,26.94
2018-09-03T12:33:28.558Z,26.90
2018-09-03T12:34:28.548Z,26.98
2018-09-03T12:35:28.630Z,26.94
2018-09-03T12:36:28.684Z,26.94
2018-09-03T12:37:28.651Z,26.97
2018-09-03T12:38:28.675Z,26.98
2018-09-03T12:39:29.021Z,26.96
2018-09-03T12:40:28.794Z,26.93
2018-09-03T12:41:28.834Z,27.01
2018-09-03T12:42:28.823Z,26.98
2018-09-03T12:43:28.913Z,26.98
2018-09-03T12:44:28.880Z,26.93
2018-09-03T12:45:29.277Z,27.01
2018-09-03T12:46:29.058Z,26.98
2018-09-03T12:47:28.986Z,27.01
2018-09-03T12:48:29.067Z,27.01
2018-09-03T12:49:29.159Z,26.98
2018-09-03T12:50:29.140Z,26.98
2018-09-03T12:51:29.426Z,27.01
2018-09-03T12:52:29.158Z,27.01
2018-09-03T12:53:29.242Z,27.03
2018-09-03T12:54:29.227Z,27.03
2018-09-03T12:56:29.355Z,27.01
2018-09-03T12:57:29.675Z,27.03
2018-09-03T12:58:29.431Z,27.01
2018-09-03T12:59:29.403Z,27.06
2018-09-03T13:00:29.439Z,26.94
2018-09-03T13:01:29.470Z,26.97
2018-09-03T13:02:29.552Z,27.01
2018-09-03T13:03:29.585Z,26.97